Flugplatz Karlshöfen

EDWK · 下萨克森, 德国

使用的METAR站距离机场36 km。
罗盘
风向 的 风向 030° Flugplatz Karlshöfen 11/29
风: 8 kt, 3 beaufort

1 kt

8 kt
改变
0 ft 1.000 2.000 3.000 4.000 5.000
CAVOK
METAR EDDW 262150Z AUTO 03008KT CAVOK 03/02 Q1015

METAR Flugplatz Karlshöfen - EDWK

Flugplatz Karlshöfen是,德国中的小机场。 该机场位于纬度53,33276和经度9,02870。 该机场有一条跑道: 11/29. 本场的ICAO机场代码为EDWK。 机场在Bremen FIR中。

该航空气象观测是针对Bremen Airport在2024年2月26日 22:50, 当地时间进行的。

机场观察

风向为030°,速度为8 kt。

天气为CAVOK。这意味着在5.000 ft或MSA(最低安全高度)以下(以较高者为准)以下没有云。这也意味着没有观测到积雨云或高耸的积云,可见度为10 km 或者更多或更高。此外,不会有雾,降雨或其他重要天气。

温度为3 °C,阵风为-3 °C。 露点为2 °C,相对湿度为93%。 海平面上的气压为1015 hPa (QNH)。

白天

今天,太阳从07:19升起,在17:54降落。 这适用于Flugplatz Karlshöfen,世界夏令时可能有所不同。 当地时间与世界标准时间之间的时差为+1 小时。 当前,没有夏令时有效。

公司介绍

在这个机场,你可以找到飞行俱乐部。 本场上唯一已知的公司是Aeroclub Elbe-Weser Karlshöfen e. V.。

体会

到Vliegles.nl去找飞行课程,跳伞和其他飞行体验。 浏览页面,了解Flugplatz Karlshöfen附近所有可用的活动。 你也可以使用搜索功能来寻找你所在地附近的特定飞行课程、跳伞或其他飞行体验。

跑道

Id 标题 侧风 逆风 侧风 %
11/29 115°-295° 8 kt 100 %

逆风成分最大的方向会被突出显示,并用于横风计算。 这并不一定意味着这个方向在使用。

温度 & 天气

温度 3 °C
露点 2 °C
相对湿度 93%
风寒 -3 °C
Kp-index 1 (0-9)

白天

日出
07:19 (8:02)
中午
12:37
日落
17:56

小工具

你想在你的网站上有一个关于Flugplatz Karlshöfen的当前航空天气(METAR)的小部件吗?

显示HTML代码
?>